Map

Track Data

SID SEASON NUMBER BASIN SUBBASIN NAME ISO_TIME NATURE LAT LON WMO_WIND WMO_PRES WMO_AGENCY TRACK_TYPE DIST2LAND LANDFALL IFLAG USA_AGENCY USA_ATCF_ID USA_LAT USA_LON USA_RECORD USA_STATUS USA_WIND USA_PRES USA_SSHS USA_R34_NE USA_R34_SE USA_R34_SW USA_R34_NW USA_R50_NE USA_R50_SE USA_R50_SW USA_R50_NW USA_R64_NE USA_R64_SE USA_R64_SW USA_R64_NW USA_POCI USA_ROCI USA_RMW USA_EYE TOKYO_LAT TOKYO_LON TOKYO_GRADE TOKYO_WIND TOKYO_PRES TOKYO_R50_DIR TOKYO_R50_LONG TOKYO_R50_SHORT TOKYO_R30_DIR TOKYO_R30_LONG TOKYO_R30_SHORT TOKYO_LAND CMA_LAT CMA_LON CMA_CAT CMA_WIND CMA_PRES HKO_LAT HKO_LON HKO_CAT HKO_WIND HKO_PRES NEWDELHI_LAT NEWDELHI_LON NEWDELHI_GRADE NEWDELHI_WIND NEWDELHI_PRES NEWDELHI_CI NEWDELHI_DP NEWDELHI_POCI REUNION_LAT REUNION_LON REUNION_TYPE REUNION_WIND REUNION_PRES REUNION_TNUM REUNION_CI REUNION_RMW REUNION_R34_NE REUNION_R34_SE REUNION_R34_SW REUNION_R34_NW REUNION_R50_NE REUNION_R50_SE REUNION_R50_SW REUNION_R50_NW REUNION_R64_NE REUNION_R64_SE REUNION_R64_SW REUNION_R64_NW BOM_LAT BOM_LON BOM_TYPE BOM_WIND BOM_PRES BOM_TNUM BOM_CI BOM_RMW BOM_R34_NE BOM_R34_SE BOM_R34_SW BOM_R34_NW BOM_R50_NE BOM_R50_SE BOM_R50_SW BOM_R50_NW BOM_R64_NE BOM_R64_SE BOM_R64_SW BOM_R64_NW BOM_ROCI BOM_POCI BOM_EYE BOM_POS_METHOD BOM_PRES_METHOD NADI_LAT NADI_LON NADI_CAT NADI_WIND NADI_PRES WELLINGTON_LAT WELLINGTON_LON WELLINGTON_WIND WELLINGTON_PRES DS824_LAT DS824_LON DS824_STAGE DS824_WIND DS824_PRES TD9636_LAT TD9636_LON TD9636_STAGE TD9636_WIND TD9636_PRES TD9635_LAT TD9635_LON TD9635_WIND TD9635_PRES TD9635_ROCI NEUMANN_LAT NEUMANN_LON NEUMANN_CLASS NEUMANN_WIND NEUMANN_PRES MLC_LAT MLC_LON MLC_CLASS MLC_WIND MLC_PRES USA_GUST BOM_GUST BOM_GUST_PER REUNION_GUST REUNION_GUST_PER USA_SEAHGT USA_SEARAD_NE USA_SEARAD_SE USA_SEARAD_SW USA_SEARAD_NW STORM_SPEED STORM_DIR
1952051S09057 1952 14 SI MM NOT_NAMED 1952-02-20 06:00:00 TS -8.90000 56.5750 reunion main 863 846 O____O___OO___ jtwc_sh SH141952 -8.20000 56.8000 -1 -11.0000 55.9000 99 9.90000 -8.20000 56.8000 TC 25 -8.20000 56.8000 7 6 176
1952051S09057 1952 14 SI MM NOT_NAMED 1952-02-20 09:00:00 TS -9.17628 56.5927 main 846 834 P____P___PP___ SH141952 -8.54750 56.8025 -1 -11.0476 55.9767 99 -8.54750 56.8025 TC 25 -8.56250 56.7891 7 6 176
1952051S09057 1952 14 SI MM NOT_NAMED 1952-02-20 12:00:00 TS -9.45386 56.6093 main 829 818 O____P___OP___ jtwc_sh SH141952 -8.90000 56.8000 -1 -11.0954 56.0545 99 -8.90000 56.8000 TC 25 -8.92001 56.7825 7 6 176
1952051S09057 1952 14 SI MM NOT_NAMED 1952-02-20 15:00:00 TS -9.73156 56.6260 main 818 804 P____P___PP___ SH141952 -9.25750 56.7925 -1 -11.1437 56.1343 99 -9.25750 56.7925 TC 30 -9.26751 56.7847 7 6 176
1952051S09057 1952 14 SI MM NOT_NAMED 1952-02-20 18:00:00 TS -9.99818 56.6543 main 813 804 O____P___OO___ jtwc_sh SH141952 -9.60000 56.8000 -1 -11.1927 56.2172 99 -9.60000 56.8000 TC 35 -9.60000 56.8000 2 5 171
1952051S09057 1952 14 SI MM NOT_NAMED 1952-02-20 21:00:00 TS -10.2430 56.7052 main 804 796 P____P___PP___ SH141952 -9.90750 56.8425 -1 -11.2426 56.3042 99 -9.90750 56.8425 TC 35 -9.91437 56.8316 2 5 167
1952051S09057 1952 14 SI MM NOT_NAMED 1952-02-21 00:00:00 TS -10.4772 56.7685 main 802 794 O____P___OP___ jtwc_sh SH141952 -10.2000 56.9000 -1 -11.2936 56.3964 99 -10.2000 56.9000 TC 35 -10.2150 56.8775 2 5 165
1952051S09057 1952 14 SI MM NOT_NAMED 1952-02-21 03:00:00 TS -10.7135 56.8323 main 794 790 P____P___PP___ SH141952 -10.5000 56.9500 -1 -11.3460 56.4946 99 -10.5000 56.9500 TC 35 -10.5081 56.9347 2 5 164
1952051S09057 1952 14 SI MM NOT_NAMED 1952-02-21 06:00:00 TS -10.9500 56.9000 reunion main 797 790 O____O___OO___ jtwc_sh SH141952 -10.8000 57.0000 -1 -11.4000 56.6000 99 9.90000 -10.8000 57.0000 TC 35 -10.8000 57.0000 2 5 165
1952051S09057 1952 14 SI MM NOT_NAMED 1952-02-21 09:00:00 TS -11.1884 56.9647 main 798 792 P____P___PP___ SH141952 -11.1000 57.0425 -1 -11.4575 56.7141 99 -11.1000 57.0425 TC 35 -11.0959 57.0598 2 5 164
1952051S09057 1952 14 SI MM NOT_NAMED 1952-02-21 12:00:00 TS -11.4300 57.0420 main 792 792 O____P___OP___ jtwc_sh SH141952 -11.4000 57.1000 -1 -11.5274 56.8405 99 -11.4000 57.1000 TC 35 -11.3925 57.1276 2 5 160
1952051S09057 1952 14 SI MM NOT_NAMED 1952-02-21 15:00:00 TS -11.6783 57.1438 main 794 794 P____P___PP___ SH141952 -11.7000 57.1925 -1 -11.6203 56.9834 99 -11.7000 57.1925 TC 35 -11.6928 57.2067 2 6 157
1952051S09057 1952 14 SI MM NOT_NAMED 1952-02-21 18:00:00 TS -11.9367 57.2618 main 809 803 O____P___OO___ jtwc_sh SH141952 -12.0000 57.3000 -1 -11.7468 57.1473 99 -12.0000 57.3000 TC 35 -12.0000 57.3000 2 6 156
1952051S09057 1952 14 SI MM NOT_NAMED 1952-02-21 21:00:00 TS -12.1908 57.3731 main 811 806 P____P___PP___ SH141952 -12.2925 57.3926 -1 -11.9174 57.3364 99 -12.2925 57.3926 TC 30 -12.2608 57.3709 2 6 156
1952051S09057 1952 14 SI MM NOT_NAMED 1952-02-22 00:00:00 TS -12.4700 57.5042 main 814 814 O____P___OP___ jtwc_sh SH141952 -12.6000 57.5000 -1 -12.1427 57.5551 99 -12.6000 57.5000 TC 25 -12.5373 57.4615 2 7 154
1952051S09057 1952 14 SI MM NOT_NAMED 1952-02-22 03:00:00 TS -12.7783 57.6612 main 816 783 P____P___PP___ SH141952 -12.9050 57.6202 -1 -12.4334 57.8081 99 -12.9050 57.6202 TC 25 -12.8701 57.5963 2 8 153
1952051S09057 1952 14 SI MM NOT_NAMED 1952-02-22 06:00:00 TS -13.1750 57.8750 reunion main 772 718 O____O___OO___ jtwc_sh SH141952 -13.3000 57.8000 -1 -12.8000 58.1000 99 9.90000 -13.3000 57.8000 TC 25 -13.3000 57.8000 1 11 152
1952051S09057 1952 14 SI MM NOT_NAMED 1952-02-22 09:00:00 TS -13.7094 58.1718 main 718 654 P____P___PP___ SH141952 -13.8400 58.0552 -1 -13.2497 58.4342 99 -13.8400 58.0552 TC 25 -13.8867 58.0865 1 13 151
1952051S09057 1952 14 SI MM NOT_NAMED 1952-02-22 12:00:00 TS -14.3471 58.5434 main 654 584 O____P___OP___ jtwc_sh SH141952 -14.5000 58.4000 -1 -13.7752 58.8075 99 -14.5000 58.4000 TC 25 -14.5676 58.4446 1 16 150
1952051S09057 1952 14 SI MM NOT_NAMED 1952-02-22 15:00:00 TS -15.0559 58.9773 main 576 524 P____P___PP___ SH141952 -15.2500 58.8273 -1 -14.3655 59.2153 99 -15.2500 58.8273 TC 30 -15.2898 58.8556 1 17 149
1952051S09057 1952 14 SI MM NOT_NAMED 1952-02-22 18:00:00 TS -15.7734 59.4458 main 513 474 O____P___OO___ jtwc_sh SH141952 -16.0000 59.3000 -1 -15.0096 59.6529 99 -16.0000 59.3000 TC 35 -16.0000 59.3000 2 16 147
1952051S09057 1952 14 SI MM NOT_NAMED 1952-02-22 21:00:00 TS -16.4087 59.8903 main 474 442 P____P___PP___ SH141952 -16.6223 59.7430 -1 -15.6964 60.1153 99 -16.6223 59.7430 TC 35 -16.6046 59.7117 2 15 145
1952051S09057 1952 14 SI MM NOT_NAMED 1952-02-23 00:00:00 TS -17.0213 60.3445 main 442 429 O____P___OP___ jtwc_sh SH141952 -17.2000 60.2000 -1 -16.4146 60.5975 99 -17.2000 60.2000 TC 35 -17.1914 60.1558 2 15 145
1952051S09057 1952 14 SI MM NOT_NAMED 1952-02-23 03:00:00 TS -17.6389 60.8072 main 429 418 P____P___PP___ SH141952 -17.7847 60.6707 -1 -17.1529 61.0942 99 -17.7847 60.6707 TC 35 -17.7824 60.6468 2 16 144
1952051S09057 1952 14 SI MM NOT_NAMED 1952-02-23 06:00:00 TS -18.2750 61.3000 reunion main 428 427 O____O___OO___ jtwc_sh SH141952 -18.4000 61.2000 -1 -17.9000 61.6000 99 9.90000 -18.4000 61.2000 TC 35 -18.4000 61.2000 2 16 144
1952051S09057 1952 14 SI MM NOT_NAMED 1952-02-23 09:00:00 TS -18.9593 61.8251 main 443 443 P________PP___ SH141952 -19.0848 61.8129 -1 99 -19.0848 61.8129 TC 35 -19.0753 61.8236 2 17 143
1952051S09057 1952 14 SI MM NOT_NAMED 1952-02-23 12:00:00 TS -19.6668 62.3898 main 485 485 O________OP___ jtwc_sh SH141952 -19.8000 62.5000 -1 99 -19.8000 62.5000 TC 35 -19.7774 62.5110 2 18 142
1952051S09057 1952 14 SI MM NOT_NAMED 1952-02-23 15:00:00 TS -20.3972 63.0262 main 542 542 P________PP___ SH141952 -20.5073 63.2280 -1 99 -20.5073 63.2280 TC 35 -20.4907 63.2430 2 19 139
1952051S09057 1952 14 SI MM NOT_NAMED 1952-02-23 18:00:00 TS -21.1208 63.7586 main 630 630 O________OO___ jtwc_sh SH141952 -21.2000 64.0000 -1 99 -21.2000 64.0000 TC 35 -21.2000 64.0000 2 20 134
1952051S09057 1952 14 SI MM NOT_NAMED 1952-02-23 21:00:00 TS -21.8043 64.6041 main 725 725 P________PP___ SH141952 -21.8498 64.8008 -1 99 -21.8498 64.8008 TC 35 -21.8454 64.7647 2 22 129
1952051S09057 1952 14 SI MM NOT_NAMED 1952-02-24 00:00:00 TS -22.4966 65.5824 main 843 843 O________OP___ jtwc_sh SH141952 -22.5000 65.6000 -1 99 -22.5000 65.6000 TC 35 -22.4898 65.5472 2 21 130
1952051S09057 1952 14 SI MM NOT_NAMED 1952-02-24 03:00:00 TS -23.1678 66.3494 main 935 935 P________PP___ SH141952 -23.1696 66.3587 -1 99 -23.1696 66.3587 TC 35 -23.1642 66.3310 2 20 135
1952051S09057 1952 14 SI MM NOT_NAMED 1952-02-24 06:00:00 TS -23.9000 67.1000 reunion main 1038 1038 O________OO___ jtwc_sh SH141952 -23.9000 67.1000 -1 -23.9000 67.1000 TC 35 -23.9000 67.1000 2 21 138
1952051S09057 1952 14 SI MM NOT_NAMED 1952-02-24 09:00:00 TS -24.7117 67.8618 main 1146 1146 P________PP___ SH141952 -24.7123 67.8583 -1 -24.7123 67.8583 TC 30 -24.7107 67.8689 2 22 141
1952051S09057 1952 14 SI MM NOT_NAMED 1952-02-24 12:00:00 TS -25.5958 68.6064 main 1251 1251 O________OP___ jtwc_sh SH141952 -25.6000 68.6000 -1 -25.6000 68.6000 TC 25 -25.5875 68.6191 2 23 144
1952051S09057 1952 14 SI MM NOT_NAMED 1952-02-24 15:00:00 TS -26.5250 69.3272 main 1358 1358 P________PP___ SH141952 -26.5273 69.3233 -1 -26.5273 69.3233 TC 25 -26.5204 69.3350 2 23 147
1952051S09057 1952 14 SI MM NOT_NAMED 1952-02-24 18:00:00 TS -27.5000 70.0000 main 1472 1472 O________OO___ jtwc_sh SH141952 -27.5000 70.0000 -1 -27.5000 70.0000 TC 25 -27.5000 70.0000 7 23 150
1952051S09057 1952 14 SI MM NOT_NAMED 1952-02-24 21:00:00 TS -28.4905 70.6218 main 1579 1579 P________PP___ SH141952 -28.4772 70.6312 -1 -28.4772 70.6312 TC 25 -28.5171 70.6031 7 23 153
1952051S09057 1952 14 SI MM NOT_NAMED 1952-02-25 00:00:00 TS -29.5209 71.1859 main 1688 1688 O________OP___ jtwc_sh SH141952 -29.5000 71.2000 -1 -29.5000 71.2000 TC 25 -29.5628 71.1576 7 23 156
1952051S09057 1952 14 SI MM NOT_NAMED 1952-02-25 03:00:00 TS -30.5976 71.7029 main 1797 1797 P________PP___ SH141952 -30.5828 71.7127 -1 -30.5828 71.7127 TC 25 -30.6273 71.6832 7 24 158
1952051S09057 1952 14 SI MM NOT_NAMED 1952-02-25 06:00:00 TS -31.7000 72.2000 reunion main 1908 O________OO___ jtwc_sh SH141952 -31.7000 72.2000 -1 -31.7000 72.2000 TC 25 -31.7000 72.2000 7 24 159

About IBTrACS Database

This database is a web-friendly format of International Best Track Archive for Climate Stewardship (IBTrACS), a global best track data archive curated by NOAA dating back to 1842.

Updated: 2021-10-21